• Join FlightAware (Why Join?)
  • Login
  • US Flag 
06:20PM EDT


 

Airport Tracker/Info


-or-


 

Live Flight TrackerFlight Track Log ✈ CPZ5714 ✈ 26-Jun-2013 ✈ KMSP - KALB

Flight Track Log - Related Links

Times and Time Zones

All times are in EDT time to prevent confusion due to time zone crossing. See the CPZ5714 flight status page for this flight to view local times or setup timezone preferences in your user account.

Time Position Orientation Groundspeed Altitude Reporting Facility
EDT Latitude Longitude Course Direction KTS MPH feet Rate Location/Type
09:03PM 45.2013 -92.7146 50° Northeast  Level FlightAware Approximate
09:04PM 45.2823 -92.5849 47° Northeast  Level FlightAware Approximate
09:05PM 45.3598 -92.4565 45° Northeast  Level FlightAware Approximate
09:06PM 45.4445 -92.3314 49° Northeast  Level FlightAware Approximate
09:06PM 45.2011 -93.0161 46° Northeast 287 330 10,200  Level Minneapolis Center
09:07PM 45.5249 -92.2003 48° Northeast  Level FlightAware Approximate
09:07PM 45.2656 -92.8867 55° Northeast 340 391 11,800  Level Minneapolis Center
09:08PM 45.6066 -92.0708 48° Northeast  Level FlightAware Approximate
09:08PM 45.3192 -92.7292 64° Northeast 372 428 14,100  Level Minneapolis Center
09:09PM 45.6899 -91.9435 35° Northeast  Level FlightAware Approximate
09:09PM 45.3508 -92.5808 73° East 391 450 15,800  Level Minneapolis Center
09:10PM 45.7715 -91.8142 49° Northeast  Level FlightAware Approximate
09:10PM 45.3925 -92.3978 72° East 406 467 18,300  Level Minneapolis Center
09:11PM 45.8511 -91.6817 46° Northeast  Level FlightAware Approximate
09:12PM 45.4258 -92.2400 73° East 416 479 19,800  Level Minneapolis Center
09:13PM 45.4628 -92.0769 72° East 430 495 21,400 1,500 Climbing Minneapolis Center
09:14PM 45.4981 -91.9092 73° East 439 505 22,900 1,440 Climbing Minneapolis Center
09:15PM 45.5336 -91.7386 73° East 447 514 24,400 1,440 Climbing Minneapolis Center
09:16PM 45.5767 -91.5303 73° East 456 525 25,900 1,200 Climbing Minneapolis Center
09:17PM 45.6144 -91.3542 73° East 463 533 26,900 900 Climbing Minneapolis Center
09:18PM 45.6500 -91.1797 74° East 471 542 27,800 900 Climbing Minneapolis Center
09:19PM 45.6875 -90.9961 74° East 478 550 28,800 840 Climbing Minneapolis Center
09:20PM 45.7253 -90.8125 74° East 481 554 29,600 960 Climbing Minneapolis Center
09:21PM 45.7706 -90.5883 74° East 487 560 30,900 1,260 Climbing Minneapolis Center
09:22PM 45.8067 -90.4061 74° East 478 550 32,300 960 Climbing Minneapolis Center
09:23PM 45.8417 -90.2292 74° East 466 536 33,000 540 Climbing Minneapolis Center
09:24PM 45.8772 -90.0489 74° East 469 540 33,500 540 Climbing Minneapolis Center
09:25PM 45.9125 -89.8667 74° East 473 544 34,200 600 Climbing Minneapolis Center
09:26PM 45.9439 -89.7006 75° East 468 539 34,800 360 Climbing Minneapolis Center
09:27PM 45.9861 -89.4842 74° East 468 539 35,000 60 Climbing Minneapolis Center
09:28PM 46.0194 -89.3044 75° East 467 537 35,000  Level Minneapolis Center
09:29PM 46.0594 -89.0908 75° East 464 534 35,000  Level Minneapolis Center
09:30PM 46.0986 -88.8761 75° East 468 539 35,000  Level Minneapolis Center
09:31PM 46.1253 -88.7311 75° East 471 542 35,000  Level Minneapolis Center
09:32PM 46.1647 -88.5156 75° East 465 535 35,000  Level Minneapolis Center
09:33PM 46.1969 -88.3361 75° East 465 535 35,000  Level Minneapolis Center
09:34PM 46.2297 -88.1517 76° East 474 545 35,000  Level Minneapolis Center
09:36PM 46.2628 -87.9617 76° East 478 550 35,000  Level Minneapolis Center
09:37PM 46.2953 -87.7742 76° East 481 554 35,000  Level Minneapolis Center
09:38PM 46.3408 -87.5078 76° East 488 562 35,000  Level Minneapolis Center
09:39PM 46.3619 -87.3156 81° East 483 556 35,000  Level Minneapolis Center
09:40PM 46.3672 -87.1208 88° East 485 558 35,000 -60 Level Minneapolis Center
09:41PM 46.3486 -86.9342 98° East 471 542 34,900  Descending Minneapolis Center
09:42PM 46.3125 -86.7544 106° East 467 537 35,000  Climbing Minneapolis Center
09:43PM 46.2753 -86.5750 107° East 467 537 35,000  Level Minneapolis Center
09:44PM 46.2383 -86.3942 106° East 469 540 35,000  Level Minneapolis Center
09:45PM 46.1858 -86.1394 106° East 470 541 35,000  Level Minneapolis Center
09:46PM 46.1456 -85.9544 107° East 480 552 35,000  Level Minneapolis Center
09:47PM 46.1072 -85.7686 107° East 483 556 35,000  Level Minneapolis Center
09:48PM 46.0672 -85.5828 107° East 485 558 35,000  Level Minneapolis Center
09:49PM 46.0253 -85.3967 108° East 488 562 35,000  Level Minneapolis Center
09:50PM 45.9842 -85.2100 108° East 488 562 35,000  Level Minneapolis Center
09:51PM 45.9436 -85.0208 107° East 493 567 35,000  Level Minneapolis Center
09:52PM 45.8919 -84.7933 108° East 497 572 35,000  Level Minneapolis Center
09:53PM 45.8489 -84.6011 108° East 501 577 35,000  Level Minneapolis Center
09:54PM 45.8064 -84.4139 108° East 499 574 35,000  Level Minneapolis Center
09:56PM 45.7625 -84.2253 108° East 498 573 35,000  Level Minneapolis Center
09:57PM 45.7203 -84.0389 108° East 496 571 35,000  Level Minneapolis Center
09:58PM 45.6767 -83.8525 108° East 493 567 35,000  Level Minneapolis Center
09:59PM 45.6336 -83.6664 108° East 494 568 35,000  Level Minneapolis Center
10:00PM 45.5808 -83.4431 109° East 494 568 35,000  Level Minneapolis Center
10:01PM 45.5361 -83.2547 109° East 498 573 35,000  Level Minneapolis Center
10:02PM 45.4833 -83.0833 114° Southeast 500 575 35,000  Level Toronto Center
10:03PM 45.4333 -82.8833 110° East 510 587 35,000  Level Toronto Center
10:04PM 45.3833 -82.7000 111° Southeast 500 575 35,000  Level Toronto Center
10:05PM 45.3500 -82.5333 106° East 490 564 35,000  Level Toronto Center
10:06PM 45.3000 -82.3333 110° East 490 564 35,000  Level Toronto Center
10:07PM 45.2500 -82.1500 111° Southeast 490 564 35,000  Level Toronto Center
10:08PM 45.2000 -81.9833 113° Southeast 490 564 35,000  Level Toronto Center
10:09PM 45.1667 -81.7833 103° East 490 564 35,000  Level Toronto Center
10:10PM 45.1167 -81.6167 113° Southeast 490 564 35,000  Level Toronto Center
10:11PM 45.0667 -81.4333 111° Southeast 490 564 35,000  Level Toronto Center
10:12PM 45.0167 -81.2333 109° East 500 575 35,000  Level Toronto Center
10:13PM 44.9667 -81.0667 113° Southeast 500 575 35,000  Level Toronto Center
10:14PM 44.9167 -80.8833 111° Southeast 500 575 35,000  Level Toronto Center
10:15PM 44.8833 -80.6833 103° East 500 575 35,000  Level Toronto Center
10:16PM 44.8333 -80.5000 111° Southeast 500 575 35,000  Level Toronto Center
10:17PM 44.7833 -80.3333 113° Southeast 500 575 35,000  Level Toronto Center
10:18PM 44.7333 -80.1500 111° Southeast 500 575 35,000  Level Toronto Center
10:19PM 44.6833 -79.9667 111° Southeast 500 575 35,000  Level Toronto Center
10:20PM 44.6333 -79.8000 113° Southeast 500 575 35,000  Level Toronto Center
10:21PM 44.5667 -79.6167 117° Southeast 500 575 35,000  Level Toronto Center
10:22PM 44.5167 -79.4167 109° East 510 587 35,000  Level Toronto Center
10:23PM 44.4667 -79.2333 111° Southeast 510 587 35,000  Level Toronto Center
10:24PM 44.4167 -79.0500 111° Southeast 510 587 35,000  Level Toronto Center
10:25PM 44.3667 -78.8667 111° Southeast 510 587 35,000  Level Toronto Center
10:26PM 44.3167 -78.6833 111° Southeast 510 587 35,000  Level Toronto Center
10:27PM 44.2667 -78.5167 113° Southeast 510 587 35,000  Level Toronto Center
10:28PM 44.2000 -78.3000 113° Southeast 500 575 35,000  Level Toronto Center
10:29PM 44.1500 -78.1500 115° Southeast 500 575 35,000  Level Toronto Center
10:30PM 44.1000 -77.9667 111° Southeast 500 575 35,000  Level Toronto Center
10:31PM 44.0500 -77.7833 111° Southeast 510 587 35,000 -480 Level Toronto Center
10:32PM 44.0000 -77.6000 111° Southeast 500 575 34,100 -1,020 Descending Toronto Center
10:33PM 43.9500 -77.4333 113° Southeast 500 575 33,000 -600 Descending Toronto Center
10:34PM 43.8833 -77.2500 117° Southeast 500 575 33,000  Level Toronto Center
10:35PM 43.8167 -77.0667 117° Southeast 500 575 33,000  Level Toronto Center
10:36PM 43.7667 -76.9167 115° Southeast 500 575 33,000  Level Toronto Center
10:37PM 43.7167 -76.7000 108° East 510 587 33,000  Level Toronto Center
10:38PM 43.6594 -76.5186 114° Southeast 498 573 33,000 -720 Level Boston Center
10:39PM 43.6033 -76.3372 113° Southeast 498 573 31,400 -1,800 Descending Boston Center
10:40PM 43.5444 -76.1614 115° Southeast 503 579 29,500 -1,860 Descending Boston Center
10:41PM 43.4875 -75.9861 114° Southeast 503 579 27,700 -1,740 Descending Boston Center
10:42PM 43.4303 -75.8139 115° Southeast 503 579 26,100 -900 Descending Boston Center
10:43PM 43.3747 -75.6394 114° Southeast 498 573 26,000 -60 Descending Boston Center
10:44PM 43.3167 -75.4708 115° Southeast 493 567 26,000 -900 Level Boston Center
10:45PM 43.2544 -75.2967 116° Southeast 493 567 24,300 -2,100 Descending Boston Center
10:46PM 43.2044 -75.1319 113° Southeast 485 558 21,900 -2,340 Descending Boston Center
10:47PM 43.1536 -74.9817 115° Southeast 451 519 19,700 -2,280 Descending Boston Center
10:47PM 43.1244 -74.8922 114° Southeast 432 497 18,200 -2,220 Descending Boston Center
10:48PM 43.0753 -74.7511 115° Southeast 411 473 16,100 -1,740 Descending Boston Center
10:49PM 43.0406 -74.5992 107° East 396 456 14,700 -1,740 Descending Boston Center
10:51PM 43.0186 -74.4394 101° East 383 441 12,500 -1,800 Descending Boston Center
10:52PM 42.9961 -74.2767 101° East 359 413 10,600 -1,380 Descending Boston Center
10:53PM 42.9831 -74.1942 102° East 296 341 9,800 -1,380 Descending Boston Center
10:54PM 42.9658 -74.0828 102° East 288 331 8,200 -1,680 Descending Boston Center
10:55PM 42.9506 -73.9803 101° East 275 316 6,500 -1,740 Descending Boston Center
10:56PM 42.9353 -73.8808 102° East 243 280 4,800 -1,740 Descending Boston Center
10:57PM 42.8942 -73.8231 134° Southeast 216 249 3,100 -1,500 Descending Boston Center
10:58PM 42.8422 -73.8133 172° South 167 192 1,800 -1,320 Descending Boston Center